Tweed, Canada
Current Conditions -  °F | °C
As of 3:00 AM on Sunday 26 Oct 2014 (Local Time) from CYTR Reporting Station
Overcast Overcast  
Wind Chill: 50°   Ceiling: 6000
Heat Index: 50°   Visibility: 15mi
Dew Point: 39°   Wind: 7mph
Humidity: 66%   Direction: 270°W
Pressure: 29.55"   Gusts: NA
Location:  44.47°N, 77.3°W
Report Text: CYTR 260700Z 27006KT 15SM OVC060 10/04 A2955 RMK SC8 VIRGA SLP009
Loading
Personal Weather Stations






























Interactive Weather Map
Tropical Storm Tracking
New forecast layout! Learn more

10-Day Weather Forecast

Advertisements
Track Severe Weather on mobile